Airfield :
LOGIN :

Register | Disclaimer

   EN    FR    IT 

 










Legend :    VFR   Marginal VFR   IFR   Intensive IFR   Very Intensive IFR
Visi :
Ceiling :
>= 8 km
>= 3000ft
5 to 8 km
1000 to 3000 ft
1500m to 5 km
500 to 1000 ft
800 to 1500m
200 to 500 ft
< 800m
< 200 ft
Symbols :   Thunderstorms  Fog  Heavy snow  Heavy precipitations  Wind > 20 kt
SIGMETs :     Misc.  Thunderstorms  Icing  Turbulence  Mountain Waves  Volcanic Ashes







- Airport Elevation : 242 ft
- IATA code : DUB


EIDW - Dublin

CURRENT METAR :
  • 220930Z VRB02KT 9999 FEW015 SCT048 BKN090 10/07 Q1016 NOSIG

EXPIRED METARs :
  • 220900Z VRB03KT 9999 FEW015 SCT048 BKN090 09/07 Q1016 NOSIG
  • 220830Z VRB02KT 9999 FEW015 BKN048 09/07 Q1017 NOSIG
  • 220800Z VRB03KT 9999 FEW015 BKN050 09/07 Q1017 NOSIG
  • 220730Z VRB03KT 9999 FEW015 SCT050 BKN120 09/07 Q1016 NOSIG
  • 220700Z VRB03KT 9999 FEW015 SCT050 BKN120 08/07 Q1016 NOSIG

TAF TAF EIDW
Valid from the 22 at 06:00 until the 23 at 06:00 UTC


220500Z 2206/2306 25006KT 9999 SCT020 BKN040
PROB30
TEMPO 2211/2216 5000 -RA BKN010
BECMG 2214/2216 10006KT
No reported NOTAMs for that airfield.
1 SIGMET reported for the Shannon FIR (EISN) :
 
Severe icing
EISN SIGMET 01 VALID 220830/221230 EINN
EISN SHANNON FIR SEV ICE FCST S OF LINE N5230 W01500 - N5238 W00945 - N5220 W00530 FL050/150 MOV E 20KT NC=



MET'MAP, your aeronautical weather chart ! - Copyright ORBIFLY December 2007 - Disclaimer

ORBIFLY MET'MAP TEAM :

Programming & Development : Alexandra Zaïnal
Concept & Development : Baudouin d'Aumeries
Co-Development & Prog : Marc-Olivier Méhu
Technical & hardware support : Manuel Goepfert

Contact : metmap@orbifly.com




SOURCES & CREDITS :

   NOAA